createdAt,value
2023-01-20T00:00:01.397Z,4.19
2023-01-20T00:01:08.291Z,4.19
2023-01-20T00:01:55.252Z,4.24
2023-01-20T00:02:49.267Z,4.13
2023-01-20T00:03:43.269Z,4.21
2023-01-20T00:04:37.237Z,4.37
2023-01-20T00:05:31.246Z,4.32
2023-01-20T00:06:26.251Z,4.35
2023-01-20T00:07:13.264Z,4.42
2023-01-20T00:07:47.306Z,4.35
2023-01-20T00:08:35.237Z,4.29
2023-01-20T00:09:11.305Z,4.24
2023-01-20T00:09:58.250Z,4.12
2023-01-20T00:10:32.267Z,4.19
2023-01-20T00:11:20.222Z,4.06
2023-01-20T00:11:54.293Z,3.90
2023-01-20T00:12:38.239Z,3.96
2023-01-20T00:13:18.309Z,3.90
2023-01-20T00:14:04.230Z,4.01
2023-01-20T00:14:44.291Z,3.74
2023-01-20T00:15:24.238Z,3.78
2023-01-20T00:16:04.389Z,3.89
2023-01-20T00:16:44.223Z,4.06
2023-01-20T00:17:24.285Z,4.00
2023-01-20T00:18:05.255Z,4.04
2023-01-20T00:18:46.257Z,3.99
2023-01-20T00:19:27.234Z,4.07
2023-01-20T00:20:07.465Z,4.08
2023-01-20T00:20:47.247Z,4.00
2023-01-20T00:21:28.277Z,3.84
2023-01-20T00:22:08.241Z,3.88
2023-01-20T00:22:48.405Z,3.90
2023-01-20T00:23:28.223Z,3.85
2023-01-20T00:24:08.269Z,3.94
2023-01-20T00:24:48.231Z,3.86
2023-01-20T00:25:28.278Z,3.94
2023-01-20T00:26:24.249Z,3.91
2023-01-20T00:27:04.292Z,3.73
2023-01-20T00:27:44.219Z,3.45
2023-01-20T00:28:24.345Z,3.69
2023-01-20T00:29:05.257Z,3.63
2023-01-20T00:29:46.631Z,3.82
2023-01-20T00:30:26.204Z,3.71
2023-01-20T00:31:16.305Z,3.82
2023-01-20T00:31:57.215Z,3.71
2023-01-20T00:32:37.311Z,3.57
2023-01-20T00:33:17.227Z,3.68
2023-01-20T00:33:59.316Z,3.64
2023-01-20T00:34:39.247Z,3.74
2023-01-20T00:35:19.295Z,3.66
2023-01-20T00:35:59.209Z,3.73
2023-01-20T00:36:39.311Z,3.63
2023-01-20T00:37:19.215Z,3.75
2023-01-20T00:37:59.259Z,3.70
2023-01-20T00:38:39.190Z,3.64
2023-01-20T00:39:20.272Z,3.70
2023-01-20T00:40:00.259Z,3.60
2023-01-20T00:40:41.245Z,3.57
2023-01-20T00:41:22.206Z,3.55
2023-01-20T00:42:02.270Z,3.49
2023-01-20T00:42:42.181Z,3.36
2023-01-20T00:43:22.239Z,3.38
2023-01-20T00:44:02.224Z,3.28
2023-01-20T00:44:42.235Z,3.43
2023-01-20T00:45:23.221Z,3.28
2023-01-20T00:46:03.274Z,3.44
2023-01-20T00:46:44.283Z,3.22
2023-01-20T00:47:24.249Z,3.36
2023-01-20T00:48:04.192Z,3.44
2023-01-20T00:48:45.254Z,3.42
2023-01-20T00:49:26.195Z,3.45
2023-01-20T00:50:06.264Z,3.61
2023-01-20T00:50:46.201Z,3.40
2023-01-20T00:51:27.283Z,3.58
2023-01-20T00:52:07.198Z,3.44
2023-01-20T00:52:47.257Z,3.58
2023-01-20T00:53:28.200Z,3.48
2023-01-20T00:54:09.271Z,3.69
2023-01-20T00:54:49.197Z,3.57
2023-01-20T00:55:29.261Z,3.50
2023-01-20T00:56:10.200Z,3.69
2023-01-20T00:56:50.292Z,3.79
2023-01-20T00:57:30.185Z,3.74
2023-01-20T00:58:10.222Z,3.80
2023-01-20T00:58:51.222Z,3.79
2023-01-20T00:59:31.258Z,3.77
2023-01-20T01:00:12.229Z,3.75
2023-01-20T01:00:58.772Z,3.73
2023-01-20T01:01:39.333Z,3.82
2023-01-20T01:02:20.257Z,3.80
2023-01-20T01:03:00.182Z,3.72
2023-01-20T01:03:40.218Z,3.64
2023-01-20T01:04:20.192Z,3.71
2023-01-20T01:05:00.259Z,3.69
2023-01-20T01:05:40.185Z,3.92
2023-01-20T01:06:25.594Z,3.90
2023-01-20T01:07:05.209Z,3.81
2023-01-20T01:07:45.227Z,3.89
2023-01-20T01:08:25.170Z,4.03
2023-01-20T01:09:05.407Z,3.98
2023-01-20T01:09:45.162Z,3.97
2023-01-20T01:10:25.255Z,3.99
2023-01-20T01:11:05.178Z,3.97
2023-01-20T01:11:45.225Z,4.02
2023-01-20T01:12:25.321Z,4.06
2023-01-20T01:13:09.257Z,4.05
2023-01-20T01:13:49.181Z,4.02
2023-01-20T01:14:29.206Z,3.96
2023-01-20T01:15:10.175Z,4.04
2023-01-20T01:15:56.301Z,4.09
2023-01-20T01:16:36.210Z,4.05
2023-01-20T01:17:16.205Z,4.06
2023-01-20T01:17:56.161Z,3.88
2023-01-20T01:18:36.253Z,3.85
2023-01-20T01:19:17.141Z,3.94
2023-01-20T01:20:00.243Z,4.03
2023-01-20T01:20:40.157Z,4.05
2023-01-20T01:21:23.221Z,4.10
2023-01-20T01:22:03.157Z,4.17
2023-01-20T01:22:43.201Z,4.13
2023-01-20T01:23:23.189Z,4.15
2023-01-20T01:24:03.206Z,4.21
2023-01-20T01:24:43.154Z,4.15
2023-01-20T01:25:23.230Z,4.07
2023-01-20T01:26:03.151Z,4.09
2023-01-20T01:26:43.210Z,4.29
2023-01-20T01:27:23.142Z,4.31
2023-01-20T01:28:03.240Z,4.32
2023-01-20T01:28:43.169Z,4.14
2023-01-20T01:29:23.222Z,4.20
2023-01-20T01:30:03.151Z,4.15
2023-01-20T01:30:43.192Z,4.15
2023-01-20T01:31:25.176Z,4.26
2023-01-20T01:32:05.203Z,4.22
2023-01-20T01:32:45.162Z,4.26
2023-01-20T01:33:25.196Z,4.28
2023-01-20T01:34:05.191Z,4.23
2023-01-20T01:34:45.232Z,4.30
2023-01-20T01:35:25.131Z,4.11
2023-01-20T01:36:08.487Z,4.45
2023-01-20T01:36:48.168Z,4.47
2023-01-20T01:37:28.210Z,4.46
2023-01-20T01:38:08.193Z,4.36
2023-01-20T01:38:57.470Z,4.47
2023-01-20T01:39:40.171Z,4.43
2023-01-20T01:40:20.206Z,4.55
2023-01-20T01:41:02.177Z,4.55
2023-01-20T01:41:56.138Z,4.45
2023-01-20T01:42:50.123Z,4.56
2023-01-20T01:43:50.123Z,4.44
2023-01-20T01:44:46.217Z,4.39
2023-01-20T01:45:44.174Z,4.40
2023-01-20T01:46:38.174Z,4.40
2023-01-20T01:47:32.168Z,4.48
2023-01-20T01:48:26.125Z,4.40
2023-01-20T01:49:42.144Z,4.53
2023-01-20T01:50:30.158Z,4.53
2023-01-20T01:51:26.227Z,4.56
2023-01-20T01:52:18.141Z,4.34
2023-01-20T01:53:01.236Z,4.39
2023-01-20T01:53:49.118Z,4.33
2023-01-20T01:54:33.205Z,4.15
2023-01-20T01:55:14.356Z,4.26
2023-01-20T01:56:01.172Z,4.25
2023-01-20T01:56:36.166Z,4.11
2023-01-20T01:57:23.138Z,4.13
2023-01-20T01:57:58.226Z,4.18
2023-01-20T01:58:50.164Z,4.23
2023-01-20T01:59:25.178Z,4.29
2023-01-20T02:00:13.131Z,4.36
2023-01-20T02:00:50.180Z,4.33
2023-01-20T02:01:32.206Z,4.31
2023-01-20T02:02:13.217Z,4.26
2023-01-20T02:02:56.108Z,4.18
2023-01-20T02:03:47.196Z,4.17
2023-01-20T02:04:31.154Z,4.18
2023-01-20T02:05:12.230Z,3.98
2023-01-20T02:05:54.122Z,4.00
2023-01-20T02:06:49.163Z,4.06
2023-01-20T02:07:45.164Z,3.85
2023-01-20T02:08:40.150Z,3.69
2023-01-20T02:09:34.116Z,3.82
2023-01-20T02:10:29.136Z,3.79
2023-01-20T02:11:23.114Z,3.69
2023-01-20T02:12:14.143Z,3.76
2023-01-20T02:12:51.132Z,3.68
2023-01-20T02:13:38.112Z,3.63
2023-01-20T02:14:13.164Z,3.54
2023-01-20T02:15:04.124Z,3.68
2023-01-20T02:15:49.137Z,3.62
2023-01-20T02:17:36.159Z,3.53
2023-01-20T02:18:31.308Z,3.35
2023-01-20T02:19:56.108Z,3.46
2023-01-20T02:20:34.462Z,3.56
2023-01-20T02:22:00.132Z,3.63
2023-01-20T02:23:09.127Z,3.70
2023-01-20T02:24:21.098Z,3.61
2023-01-20T02:25:49.102Z,3.73
2023-01-20T02:27:11.118Z,3.79
2023-01-20T02:28:57.096Z,3.73
2023-01-20T02:30:24.127Z,3.86
2023-01-20T02:31:40.125Z,3.91
2023-01-20T02:33:17.086Z,3.80
2023-01-20T02:34:29.102Z,3.70
2023-01-20T02:35:40.081Z,3.72
2023-01-20T02:36:59.078Z,3.63
2023-01-20T02:38:18.081Z,3.57
2023-01-20T02:39:48.107Z,3.33
2023-01-20T02:41:26.094Z,3.40
2023-01-20T02:42:25.063Z,3.39
2023-01-20T02:43:58.087Z,3.32
2023-01-20T02:45:13.267Z,3.31
2023-01-20T02:46:41.084Z,3.39
2023-01-20T02:48:02.076Z,3.35
2023-01-20T02:49:26.091Z,3.20
2023-01-20T02:50:29.122Z,3.21
2023-01-20T02:51:33.067Z,3.21
2023-01-20T02:52:35.057Z,3.24
2023-01-20T02:53:31.053Z,3.25
2023-01-20T02:54:27.056Z,3.17
2023-01-20T02:55:26.060Z,3.05
2023-01-20T02:56:07.131Z,3.18
2023-01-20T02:56:47.115Z,3.24
2023-01-20T02:57:43.064Z,3.06
2023-01-20T02:58:47.161Z,3.15
2023-01-20T02:59:33.033Z,3.24
2023-01-20T03:00:30.115Z,3.24
2023-01-20T03:01:20.191Z,3.21
2023-01-20T03:02:25.578Z,3.31
2023-01-20T03:03:06.055Z,3.40
2023-01-20T03:03:50.116Z,3.33
2023-01-20T03:04:36.057Z,3.30
2023-01-20T03:05:26.180Z,3.20
2023-01-20T03:06:09.260Z,3.24
2023-01-20T03:06:56.074Z,3.36
2023-01-20T03:07:32.136Z,3.42
2023-01-20T03:08:20.033Z,3.37
2023-01-20T03:08:55.170Z,3.31
2023-01-20T03:09:48.119Z,3.35
2023-01-20T03:10:25.115Z,3.45
2023-01-20T03:11:14.052Z,3.40
2023-01-20T03:11:52.205Z,3.40
2023-01-20T03:12:36.250Z,3.56
2023-01-20T03:13:37.118Z,3.55
2023-01-20T03:14:20.040Z,3.63
2023-01-20T03:15:00.165Z,3.63
2023-01-20T03:16:00.099Z,3.54
2023-01-20T03:16:40.169Z,3.72
2023-01-20T03:17:21.033Z,3.61
2023-01-20T03:18:01.053Z,3.67
2023-01-20T03:18:40.138Z,3.77
2023-01-20T03:19:27.173Z,3.70
2023-01-20T03:20:01.077Z,3.80
2023-01-20T03:20:48.050Z,3.82
2023-01-20T03:21:25.087Z,3.87
2023-01-20T03:22:12.045Z,3.85
2023-01-20T03:22:46.098Z,3.82
2023-01-20T03:23:26.056Z,3.73
2023-01-20T03:24:11.084Z,3.83
2023-01-20T03:24:53.043Z,3.88
2023-01-20T03:25:33.088Z,3.86
2023-01-20T03:26:18.032Z,3.87
2023-01-20T03:27:13.022Z,3.91
2023-01-20T03:28:07.026Z,3.83
2023-01-20T03:28:52.088Z,3.81
2023-01-20T03:29:33.123Z,3.79
2023-01-20T03:30:23.104Z,3.75
2023-01-20T03:31:04.180Z,3.65
2023-01-20T03:32:04.015Z,3.68
2023-01-20T03:32:44.173Z,3.69
2023-01-20T03:33:25.028Z,3.86
2023-01-20T03:34:17.017Z,3.79
2023-01-20T03:35:12.070Z,3.83
2023-01-20T03:36:06.021Z,3.73
2023-01-20T03:37:00.012Z,3.91
2023-01-20T03:37:54.008Z,3.78
2023-01-20T03:38:48.013Z,3.76
2023-01-20T03:39:36.011Z,3.68
2023-01-20T03:40:10.062Z,3.72
2023-01-20T03:41:36.023Z,3.72
2023-01-20T03:42:25.217Z,3.58
2023-01-20T03:43:30.007Z,3.65
2023-01-20T03:44:16.066Z,3.60
2023-01-20T03:45:30.047Z,3.57
2023-01-20T03:46:21.075Z,3.76
2023-01-20T03:47:35.999Z,3.79
2023-01-20T03:48:35.056Z,3.83
2023-01-20T03:49:24.007Z,3.65
2023-01-20T03:51:08.028Z,3.82
2023-01-20T03:52:22.003Z,3.53
2023-01-20T03:53:43.982Z,3.81
2023-01-20T03:54:41.022Z,3.80
2023-01-20T03:55:47.010Z,3.90
2023-01-20T03:56:59.011Z,3.93
2023-01-20T03:57:46.228Z,3.77
2023-01-20T03:58:35.986Z,3.70
2023-01-20T03:59:18.051Z,3.78
2023-01-20T03:59:58.980Z,3.55
2023-01-20T04:00:46.091Z,3.61
2023-01-20T04:01:30.083Z,3.45
2023-01-20T04:02:20.159Z,3.59
2023-01-20T04:03:18.009Z,3.60
2023-01-20T04:04:13.029Z,3.51
2023-01-20T04:05:07.995Z,3.59
2023-01-20T04:06:01.972Z,3.26
2023-01-20T04:06:56.995Z,3.43
2023-01-20T04:07:47.021Z,3.35
2023-01-20T04:08:23.072Z,3.52
2023-01-20T04:09:14.990Z,3.55
2023-01-20T04:09:55.081Z,3.40
2023-01-20T04:10:45.959Z,3.35
2023-01-20T04:11:20.070Z,3.42
2023-01-20T04:12:06.983Z,3.28
2023-01-20T04:12:41.003Z,3.21
2023-01-20T04:13:21.994Z,3.41
2023-01-20T04:14:02.080Z,3.41
2023-01-20T04:14:43.001Z,3.35
2023-01-20T04:15:23.018Z,3.27
2023-01-20T04:16:04.039Z,3.15
2023-01-20T04:16:44.039Z,3.28
2023-01-20T04:17:24.970Z,3.15
2023-01-20T04:18:19.015Z,2.92
2023-01-20T04:18:59.995Z,3.08
2023-01-20T04:19:40.004Z,3.02
2023-01-20T04:20:21.997Z,3.07
2023-01-20T04:21:10.030Z,3.08
2023-01-20T04:22:09.970Z,3.13
2023-01-20T04:23:04.031Z,3.01
2023-01-20T04:23:53.054Z,3.18
2023-01-20T04:24:52.046Z,3.08
2023-01-20T04:25:34.677Z,3.10
2023-01-20T04:26:21.957Z,2.85
2023-01-20T04:26:56.039Z,2.83
2023-01-20T04:27:42.987Z,2.87
2023-01-20T04:28:17.007Z,2.80
2023-01-20T04:29:03.972Z,2.97
2023-01-20T04:29:38.059Z,2.98
2023-01-20T04:30:21.002Z,2.92
2023-01-20T04:31:01.078Z,2.98
2023-01-20T04:31:42.988Z,3.01
2023-01-20T04:32:22.994Z,2.91
2023-01-20T04:33:02.963Z,2.95
2023-01-20T04:33:47.025Z,2.69
2023-01-20T04:34:27.965Z,2.68
2023-01-20T04:35:08.138Z,2.81
2023-01-20T04:35:48.011Z,2.92
2023-01-20T04:36:28.027Z,2.95
2023-01-20T04:37:07.950Z,2.85
2023-01-20T04:37:48.026Z,2.98
2023-01-20T04:38:28.941Z,2.90
2023-01-20T04:39:09.139Z,2.92
2023-01-20T04:39:48.983Z,2.80
2023-01-20T04:40:29.076Z,2.89
2023-01-20T04:41:09.003Z,2.90
2023-01-20T04:41:49.072Z,2.99
2023-01-20T04:42:29.955Z,2.87
2023-01-20T04:43:12.068Z,2.76
2023-01-20T04:43:52.949Z,2.79
2023-01-20T04:44:33.041Z,2.71
2023-01-20T04:45:14.165Z,2.67
2023-01-20T04:45:55.043Z,2.59
2023-01-20T04:46:37.001Z,2.72
2023-01-20T04:47:17.006Z,2.69
2023-01-20T04:47:56.965Z,2.53
2023-01-20T04:48:37.084Z,2.66
2023-01-20T04:49:17.958Z,2.59
2023-01-20T04:49:58.011Z,2.72
2023-01-20T04:50:38.936Z,2.60
2023-01-20T04:51:19.976Z,2.68
2023-01-20T04:51:59.955Z,2.74
2023-01-20T04:52:39.994Z,2.86
2023-01-20T04:53:22.952Z,2.90
2023-01-20T04:54:17.000Z,2.65
2023-01-20T04:55:10.944Z,2.88
2023-01-20T04:56:04.951Z,2.74
2023-01-20T04:56:58.921Z,2.85
2023-01-20T04:57:38.941Z,2.65
2023-01-20T04:58:18.954Z,2.73
2023-01-20T04:58:59.915Z,2.77
2023-01-20T04:59:40.011Z,2.83
2023-01-20T05:00:25.926Z,2.79
2023-01-20T05:01:09.142Z,2.92
2023-01-20T05:01:49.036Z,3.04
2023-01-20T05:02:29.028Z,2.95
2023-01-20T05:03:04.070Z,3.02
2023-01-20T05:03:51.921Z,2.97
2023-01-20T05:04:25.982Z,2.95
2023-01-20T05:05:14.279Z,3.06
2023-01-20T05:05:47.966Z,3.02
2023-01-20T05:06:34.948Z,3.06
2023-01-20T05:07:08.990Z,3.06
2023-01-20T05:07:48.936Z,2.90
2023-01-20T05:08:29.003Z,3.01
2023-01-20T05:09:08.914Z,3.02
2023-01-20T05:09:48.974Z,3.02
2023-01-20T05:10:31.910Z,3.03
2023-01-20T05:11:12.989Z,3.10
2023-01-20T05:11:52.911Z,3.10
2023-01-20T05:12:33.052Z,3.16
2023-01-20T05:13:12.991Z,3.06
2023-01-20T05:13:52.996Z,3.29
2023-01-20T05:14:32.931Z,3.30
2023-01-20T05:15:14.209Z,3.30
2023-01-20T05:15:53.951Z,3.36
2023-01-20T05:16:34.907Z,3.41
2023-01-20T05:17:14.889Z,3.31
2023-01-20T05:17:54.955Z,3.32
2023-01-20T05:18:35.929Z,3.28
2023-01-20T05:19:17.968Z,3.37
2023-01-20T05:19:57.912Z,3.24
2023-01-20T05:20:37.979Z,3.41
2023-01-20T05:21:17.959Z,3.27
2023-01-20T05:21:57.954Z,3.42
2023-01-20T05:22:39.910Z,3.35
2023-01-20T05:23:19.972Z,3.45
2023-01-20T05:24:01.913Z,3.46
2023-01-20T05:24:41.968Z,3.45
2023-01-20T05:25:21.930Z,3.34
2023-01-20T05:26:01.968Z,3.41
2023-01-20T05:26:41.940Z,3.15
2023-01-20T05:27:21.968Z,3.26
2023-01-20T05:28:01.920Z,3.29
2023-01-20T05:28:41.958Z,3.37
2023-01-20T05:29:21.910Z,3.43
2023-01-20T05:30:02.032Z,3.32
2023-01-20T05:30:42.050Z,3.50
2023-01-20T05:31:24.067Z,3.52
2023-01-20T05:32:03.901Z,3.54
2023-01-20T05:33:02.917Z,3.37
2023-01-20T05:33:56.895Z,3.39
2023-01-20T05:34:43.908Z,3.28
2023-01-20T05:35:17.998Z,3.41
2023-01-20T05:36:04.927Z,3.52
2023-01-20T05:36:38.935Z,3.52
2023-01-20T05:37:25.888Z,3.40
2023-01-20T05:38:00.929Z,3.53
2023-01-20T05:38:47.907Z,3.49
2023-01-20T05:39:22.063Z,3.57
2023-01-20T05:40:08.931Z,3.41
2023-01-20T05:40:42.945Z,3.45
2023-01-20T05:41:29.872Z,3.58
2023-01-20T05:42:03.930Z,3.65
2023-01-20T05:42:50.873Z,3.63
2023-01-20T05:43:31.942Z,3.53
2023-01-20T05:44:12.897Z,3.55
2023-01-20T05:44:52.968Z,3.72
2023-01-20T05:45:32.929Z,3.70
2023-01-20T05:46:14.043Z,3.70
2023-01-20T05:46:53.872Z,3.54
2023-01-20T05:47:34.934Z,3.67
2023-01-20T05:48:14.871Z,3.73
2023-01-20T05:48:55.000Z,3.69
2023-01-20T05:49:34.910Z,3.64
2023-01-20T05:50:15.908Z,3.58
2023-01-20T05:50:55.905Z,3.71
2023-01-20T05:51:36.946Z,3.68
2023-01-20T05:52:16.923Z,3.60
2023-01-20T05:52:56.941Z,3.74
2023-01-20T05:53:36.865Z,3.73
2023-01-20T05:54:16.932Z,3.72
2023-01-20T05:54:56.883Z,3.72
2023-01-20T05:55:37.948Z,3.77
2023-01-20T05:56:21.873Z,3.67
2023-01-20T05:57:04.130Z,3.73
2023-01-20T05:57:43.836Z,3.71
2023-01-20T05:58:23.901Z,3.70
2023-01-20T05:59:03.882Z,3.82
2023-01-20T05:59:45.380Z,3.82
2023-01-20T06:00:26.879Z,3.73
2023-01-20T06:01:19.986Z,3.82
2023-01-20T06:01:59.883Z,3.84
2023-01-20T06:02:40.002Z,3.70
2023-01-20T06:03:19.858Z,3.66
2023-01-20T06:04:01.032Z,3.55
2023-01-20T06:04:40.920Z,3.55
2023-01-20T06:05:20.983Z,3.63
2023-01-20T06:06:07.919Z,3.62
2023-01-20T06:06:47.930Z,3.66
2023-01-20T06:07:27.872Z,3.58
2023-01-20T06:08:08.993Z,3.65
2023-01-20T06:08:49.853Z,3.44
2023-01-20T06:09:29.927Z,3.44
2023-01-20T06:10:09.863Z,3.59
2023-01-20T06:10:50.645Z,3.56
2023-01-20T06:11:30.917Z,3.59
2023-01-20T06:12:12.048Z,3.57
2023-01-20T06:12:59.859Z,3.54
2023-01-20T06:13:39.911Z,3.49
2023-01-20T06:14:19.872Z,3.46
2023-01-20T06:14:59.876Z,3.48
2023-01-20T06:15:39.836Z,3.61
2023-01-20T06:16:20.964Z,3.72
2023-01-20T06:17:00.845Z,3.58
2023-01-20T06:17:42.084Z,3.64
2023-01-20T06:18:21.892Z,3.63
2023-01-20T06:19:02.983Z,3.66
2023-01-20T06:19:42.864Z,3.71
2023-01-20T06:20:23.918Z,3.85
2023-01-20T06:21:07.852Z,3.83
2023-01-20T06:21:47.894Z,3.66
2023-01-20T06:22:27.883Z,3.53
2023-01-20T06:23:07.898Z,3.49
2023-01-20T06:23:47.858Z,3.45
2023-01-20T06:24:28.934Z,3.63
2023-01-20T06:25:08.851Z,3.53
2023-01-20T06:25:48.909Z,3.59
2023-01-20T06:26:28.851Z,3.39
2023-01-20T06:27:08.896Z,3.37
2023-01-20T06:27:48.908Z,3.19
2023-01-20T06:28:30.029Z,3.39
2023-01-20T06:29:09.844Z,3.38
2023-01-20T06:29:50.913Z,3.42
2023-01-20T06:30:30.873Z,3.28
2023-01-20T06:31:20.957Z,3.08
2023-01-20T06:32:02.056Z,3.06
2023-01-20T06:32:42.881Z,3.00
2023-01-20T06:33:22.834Z,3.19
2023-01-20T06:34:02.874Z,3.37
2023-01-20T06:34:42.845Z,3.29
2023-01-20T06:35:22.900Z,3.35
2023-01-20T06:36:03.829Z,3.39
2023-01-20T06:36:44.847Z,3.34
2023-01-20T06:37:25.839Z,3.28
2023-01-20T06:38:05.906Z,3.08
2023-01-20T06:38:45.816Z,3.33
2023-01-20T06:39:25.899Z,3.37
2023-01-20T06:40:05.842Z,3.34
2023-01-20T06:40:46.886Z,3.25
2023-01-20T06:41:27.814Z,3.42
2023-01-20T06:42:07.879Z,3.35
2023-01-20T06:42:47.802Z,3.42
2023-01-20T06:43:27.894Z,3.52
2023-01-20T06:44:07.830Z,3.46
2023-01-20T06:44:48.885Z,3.49
2023-01-20T06:45:28.860Z,3.53
2023-01-20T06:46:11.998Z,3.54
2023-01-20T06:46:52.851Z,3.58
2023-01-20T06:47:32.874Z,3.53
2023-01-20T06:48:12.997Z,3.57
2023-01-20T06:49:00.194Z,3.48
2023-01-20T06:49:40.806Z,3.43
2023-01-20T06:50:21.894Z,3.29
2023-01-20T06:51:13.908Z,3.34
2023-01-20T06:51:53.935Z,3.24
2023-01-20T06:52:34.878Z,3.36
2023-01-20T06:53:14.862Z,3.36
2023-01-20T06:53:54.822Z,3.35
2023-01-20T06:54:34.905Z,3.25
2023-01-20T06:55:14.987Z,3.27
2023-01-20T06:56:02.925Z,3.28
2023-01-20T06:56:43.833Z,3.15
2023-01-20T06:57:23.904Z,3.26
2023-01-20T06:58:03.818Z,3.14
2023-01-20T06:58:44.737Z,3.21
2023-01-20T06:59:24.794Z,3.08
2023-01-20T07:00:04.928Z,3.13
2023-01-20T07:00:45.809Z,2.96
2023-01-20T07:01:32.917Z,2.94
2023-01-20T07:03:14.823Z,2.93
2023-01-20T07:03:49.844Z,2.81
2023-01-20T07:04:23.501Z,2.75
2023-01-20T07:05:06.806Z,2.83
2023-01-20T07:05:40.895Z,2.75
2023-01-20T07:06:18.667Z,2.79
2023-01-20T07:06:58.843Z,2.90
2023-01-20T07:07:40.013Z,2.86
2023-01-20T07:08:13.457Z,2.88
2023-01-20T07:08:53.909Z,2.77
2023-01-20T07:09:34.807Z,2.66
2023-01-20T07:10:15.878Z,2.67
2023-01-20T07:10:55.789Z,2.59
2023-01-20T07:11:35.932Z,2.69
2023-01-20T07:12:15.835Z,2.62
2023-01-20T07:12:55.811Z,2.61
2023-01-20T07:13:29.845Z,2.65
2023-01-20T07:14:16.871Z,2.66
2023-01-20T07:14:53.850Z,2.78
2023-01-20T07:15:40.769Z,2.70
2023-01-20T07:16:15.950Z,2.68
2023-01-20T07:17:02.779Z,2.64
2023-01-20T07:17:36.831Z,2.73
2023-01-20T07:18:17.797Z,2.76
2023-01-20T07:18:58.850Z,2.76
2023-01-20T07:19:38.776Z,2.81
2023-01-20T07:20:20.227Z,2.80
2023-01-20T07:21:01.775Z,2.81
2023-01-20T07:21:41.891Z,2.80
2023-01-20T07:22:22.769Z,2.93
2023-01-20T07:23:08.851Z,2.88
2023-01-20T07:23:49.791Z,2.96
2023-01-20T07:24:29.819Z,2.78
2023-01-20T07:25:09.782Z,2.97
2023-01-20T07:25:49.849Z,2.82
2023-01-20T07:26:32.795Z,2.97
2023-01-20T07:27:14.950Z,3.01
2023-01-20T07:27:54.768Z,2.88
2023-01-20T07:28:35.810Z,2.92
2023-01-20T07:29:17.846Z,2.84
2023-01-20T07:29:57.896Z,3.02
2023-01-20T07:30:38.798Z,3.03
2023-01-20T07:31:25.892Z,3.06
2023-01-20T07:32:06.765Z,2.97
2023-01-20T07:32:46.862Z,3.03
2023-01-20T07:33:26.743Z,3.09
2023-01-20T07:34:06.854Z,2.98
2023-01-20T07:34:50.126Z,2.93
2023-01-20T07:35:30.867Z,3.13
2023-01-20T07:36:13.791Z,3.11
2023-01-20T07:36:53.822Z,2.80
2023-01-20T07:37:33.765Z,3.12
2023-01-20T07:38:13.838Z,3.08
2023-01-20T07:38:56.750Z,3.11
2023-01-20T07:39:36.812Z,3.14
2023-01-20T07:40:17.801Z,3.10
2023-01-20T07:40:58.146Z,3.16
2023-01-20T07:41:38.744Z,3.08
2023-01-20T07:42:18.856Z,3.10
2023-01-20T07:42:59.764Z,3.02
2023-01-20T07:43:39.835Z,3.09
2023-01-20T07:44:19.820Z,3.14
2023-01-20T07:44:59.809Z,3.15
2023-01-20T07:45:39.795Z,3.20
2023-01-20T07:46:20.846Z,3.33
2023-01-20T07:47:01.737Z,3.24
2023-01-20T07:47:41.797Z,3.26
2023-01-20T07:48:21.752Z,3.27
2023-01-20T07:49:02.826Z,3.26
2023-01-20T07:49:42.753Z,3.24
2023-01-20T07:50:22.812Z,3.22
2023-01-20T07:51:08.771Z,3.23
2023-01-20T07:51:48.869Z,3.24
2023-01-20T07:52:28.764Z,3.23
2023-01-20T07:53:09.814Z,3.31
2023-01-20T07:53:53.723Z,3.19
2023-01-20T07:54:33.778Z,3.37
2023-01-20T07:55:14.959Z,3.25
2023-01-20T07:55:55.792Z,3.31
2023-01-20T07:56:36.795Z,3.22
2023-01-20T07:57:16.781Z,3.30
2023-01-20T07:57:57.740Z,3.29
2023-01-20T07:58:38.898Z,3.23
2023-01-20T07:59:19.733Z,3.27
2023-01-20T07:59:59.800Z,3.26
2023-01-20T08:00:40.783Z,3.17
2023-01-20T08:01:25.894Z,3.27
2023-01-20T08:02:05.773Z,3.28
2023-01-20T08:02:46.828Z,3.16
2023-01-20T08:03:27.488Z,3.17
2023-01-20T08:04:07.800Z,3.17
2023-01-20T08:04:48.814Z,3.29
2023-01-20T08:05:28.801Z,3.13
2023-01-20T08:06:14.755Z,3.30
2023-01-20T08:06:54.784Z,3.28
2023-01-20T08:07:34.755Z,3.20
2023-01-20T08:08:14.778Z,3.24
2023-01-20T08:08:58.435Z,3.34
2023-01-20T08:09:40.497Z,3.24
2023-01-20T08:10:21.724Z,3.37
2023-01-20T08:11:01.897Z,3.40
2023-01-20T08:11:41.709Z,3.38
2023-01-20T08:12:22.435Z,3.46
2023-01-20T08:13:02.736Z,3.40
2023-01-20T08:13:42.821Z,3.50
2023-01-20T08:14:22.727Z,3.39
2023-01-20T08:15:02.811Z,3.52
2023-01-20T08:15:42.734Z,3.58
2023-01-20T08:16:23.948Z,3.61
2023-01-20T08:17:06.738Z,3.43
2023-01-20T08:17:46.769Z,3.48
2023-01-20T08:18:26.737Z,3.63
2023-01-20T08:19:06.765Z,3.66
2023-01-20T08:19:46.697Z,3.54
2023-01-20T08:20:26.885Z,3.78
2023-01-20T08:21:06.730Z,3.75
2023-01-20T08:21:46.848Z,3.66
2023-01-20T08:22:26.709Z,3.82
2023-01-20T08:23:06.757Z,3.71
2023-01-20T08:23:46.755Z,3.86
2023-01-20T08:24:26.827Z,3.87
2023-01-20T08:25:06.716Z,3.77
2023-01-20T08:25:46.827Z,3.81
2023-01-20T08:26:26.719Z,3.65
2023-01-20T08:27:06.759Z,3.83
2023-01-20T08:27:46.743Z,3.72
2023-01-20T08:28:26.936Z,3.84
2023-01-20T08:29:13.731Z,3.81
2023-01-20T08:29:54.791Z,3.77
2023-01-20T08:30:34.768Z,3.69
2023-01-20T08:31:21.913Z,3.79
2023-01-20T08:32:01.685Z,3.79
2023-01-20T08:32:41.815Z,3.75
2023-01-20T08:33:21.681Z,3.80
2023-01-20T08:34:02.778Z,3.84
2023-01-20T08:34:42.748Z,3.87
2023-01-20T08:35:22.863Z,3.91
2023-01-20T08:36:05.734Z,3.86
2023-01-20T08:36:49.965Z,3.87
2023-01-20T08:37:30.691Z,3.94
2023-01-20T08:38:10.793Z,3.90
2023-01-20T08:38:51.689Z,3.88
2023-01-20T08:39:31.779Z,4.08
2023-01-20T08:40:15.772Z,4.06
2023-01-20T08:40:55.757Z,4.06
2023-01-20T08:41:39.708Z,4.08
2023-01-20T08:42:19.870Z,4.08
2023-01-20T08:42:59.687Z,4.15
2023-01-20T08:43:39.745Z,4.07
2023-01-20T08:44:21.701Z,4.11
2023-01-20T08:45:01.845Z,4.20
2023-01-20T08:45:42.734Z,4.07
2023-01-20T08:46:25.839Z,4.23
2023-01-20T08:47:05.692Z,4.21
2023-01-20T08:47:47.814Z,4.30
2023-01-20T08:48:27.733Z,4.34
2023-01-20T08:49:07.976Z,4.34
2023-01-20T08:49:48.680Z,4.31
2023-01-20T08:50:28.726Z,4.32
2023-01-20T08:51:24.761Z,4.38
2023-01-20T08:52:04.722Z,4.29
2023-01-20T08:52:44.671Z,4.35
2023-01-20T08:53:24.749Z,4.39
2023-01-20T08:54:06.705Z,4.42
2023-01-20T08:54:46.803Z,4.45
2023-01-20T08:55:26.687Z,4.51
2023-01-20T08:56:08.746Z,4.47
2023-01-20T08:56:49.713Z,4.59
2023-01-20T08:57:32.816Z,4.61
2023-01-20T08:58:13.680Z,4.46
2023-01-20T08:58:54.014Z,4.66
2023-01-20T08:59:47.666Z,4.66
2023-01-20T09:00:41.670Z,4.61
2023-01-20T09:01:42.703Z,4.62
2023-01-20T09:02:24.903Z,4.68
2023-01-20T09:03:04.831Z,4.78
2023-01-20T09:03:59.289Z,4.78
2023-01-20T09:04:44.980Z,4.78
2023-01-20T09:05:27.663Z,4.81
2023-01-20T09:06:11.713Z,4.64
2023-01-20T09:06:56.679Z,4.73
2023-01-20T09:07:43.772Z,4.73
2023-01-20T09:08:37.675Z,4.72
2023-01-20T09:09:34.670Z,4.70
2023-01-20T09:10:28.652Z,4.85
2023-01-20T09:11:29.007Z,4.82
2023-01-20T09:12:22.682Z,4.93
2023-01-20T09:13:02.659Z,4.94
2023-01-20T09:13:42.795Z,4.91
2023-01-20T09:14:25.697Z,4.87
2023-01-20T09:15:07.531Z,4.91
2023-01-20T09:15:47.668Z,5.04
2023-01-20T09:16:27.709Z,5.00
2023-01-20T09:17:09.665Z,5.02
2023-01-20T09:17:49.764Z,5.19
2023-01-20T09:18:30.795Z,5.22
2023-01-20T09:19:11.679Z,5.04
2023-01-20T09:19:52.655Z,5.24
2023-01-20T09:20:33.777Z,5.24
2023-01-20T09:21:14.651Z,5.27
2023-01-20T09:21:54.758Z,5.29
2023-01-20T09:22:34.632Z,5.25
2023-01-20T09:23:14.694Z,5.29
2023-01-20T09:23:54.662Z,5.27
2023-01-20T09:24:34.691Z,5.27
2023-01-20T09:25:17.009Z,5.18
2023-01-20T09:25:57.673Z,5.11
2023-01-20T09:26:44.651Z,5.26
2023-01-20T09:27:25.424Z,5.21
2023-01-20T09:28:08.644Z,5.24
2023-01-20T09:28:48.686Z,5.28
2023-01-20T09:29:28.689Z,5.10
2023-01-20T09:30:10.677Z,5.22
2023-01-20T09:30:50.742Z,5.33
2023-01-20T09:31:31.769Z,5.35
2023-01-20T09:32:11.636Z,5.28
2023-01-20T09:32:53.769Z,5.25
2023-01-20T09:33:33.662Z,5.37
2023-01-20T09:34:18.926Z,5.41
2023-01-20T09:34:58.689Z,5.40
2023-01-20T09:35:38.695Z,5.33
2023-01-20T09:36:18.675Z,5.36
2023-01-20T09:37:33.627Z,5.48
2023-01-20T09:38:45.613Z,5.52
2023-01-20T09:39:57.631Z,5.39
2023-01-20T09:41:40.818Z,5.54
2023-01-20T09:42:57.476Z,5.49
2023-01-20T09:44:00.638Z,5.57
2023-01-20T09:44:53.776Z,5.44
2023-01-20T09:46:13.687Z,5.56
2023-01-20T09:47:26.490Z,5.46
2023-01-20T09:48:41.638Z,5.58
2023-01-20T09:49:56.242Z,5.53
2023-01-20T09:51:14.635Z,5.58
2023-01-20T09:52:47.244Z,5.70
2023-01-20T09:53:37.627Z,5.71
2023-01-20T09:54:33.333Z,5.70
2023-01-20T09:55:35.623Z,5.71
2023-01-20T09:56:31.632Z,5.63
2023-01-20T09:57:27.604Z,5.66
2023-01-20T09:58:55.617Z,5.65